createdAt,value
2022-10-02T00:00:04.168Z,10.24
2022-10-02T00:01:04.125Z,10.17
2022-10-02T00:02:04.260Z,10.20
2022-10-02T00:03:04.086Z,10.22
2022-10-02T00:04:04.118Z,10.26
2022-10-02T00:05:04.077Z,10.24
2022-10-02T00:06:04.060Z,10.34
2022-10-02T00:07:04.019Z,10.29
2022-10-02T00:08:04.002Z,10.32
2022-10-02T00:09:04.002Z,10.36
2022-10-02T00:10:04.006Z,10.31
2022-10-02T00:11:03.959Z,10.39
2022-10-02T00:12:03.932Z,10.36
2022-10-02T00:13:03.924Z,10.36
2022-10-02T00:14:03.895Z,10.34
2022-10-02T00:15:03.913Z,10.36
2022-10-02T00:16:03.950Z,10.34
2022-10-02T00:17:03.865Z,10.42
2022-10-02T00:18:03.856Z,10.34
2022-10-02T00:19:04.126Z,10.42
2022-10-02T00:20:03.835Z,10.36
2022-10-02T00:21:03.787Z,10.42
2022-10-02T00:22:03.779Z,10.46
2022-10-02T00:23:03.751Z,10.35
2022-10-02T00:24:03.759Z,10.47
2022-10-02T00:25:03.748Z,10.44
2022-10-02T00:26:03.704Z,10.49
2022-10-02T00:27:03.684Z,10.38
2022-10-02T00:28:03.748Z,10.46
2022-10-02T00:29:03.681Z,10.47
2022-10-02T00:30:03.670Z,10.42
2022-10-02T00:31:03.631Z,10.47
2022-10-02T00:32:03.673Z,10.39
2022-10-02T00:33:03.622Z,10.35
2022-10-02T00:34:03.575Z,10.36
2022-10-02T00:35:03.606Z,10.29
2022-10-02T00:36:03.530Z,10.28
2022-10-02T00:37:03.519Z,10.32
2022-10-02T00:38:03.501Z,10.29
2022-10-02T00:39:03.498Z,10.24
2022-10-02T00:40:03.541Z,10.29
2022-10-02T00:41:03.457Z,10.22
2022-10-02T00:42:03.433Z,10.17
2022-10-02T00:43:03.418Z,10.22
2022-10-02T00:44:03.392Z,10.20
2022-10-02T00:45:03.402Z,10.18
2022-10-02T00:46:03.388Z,10.06
2022-10-02T00:47:03.357Z,10.11
2022-10-02T00:48:03.329Z,10.11
2022-10-02T00:49:03.302Z,10.02
2022-10-02T00:50:04.432Z,10.07
2022-10-02T00:51:03.294Z,10.01
2022-10-02T00:52:03.273Z,10.02
2022-10-02T00:53:03.248Z,10.04
2022-10-02T00:54:03.233Z,9.99
2022-10-02T00:55:03.239Z,10.04
2022-10-02T00:56:03.206Z,9.95
2022-10-02T00:57:03.178Z,10.04
2022-10-02T00:58:03.175Z,10.02
2022-10-02T00:59:03.137Z,9.88
2022-10-02T01:00:03.154Z,9.98
2022-10-02T01:01:03.152Z,9.95
2022-10-02T01:02:03.211Z,9.92
2022-10-02T01:03:03.080Z,10.04
2022-10-02T01:04:03.109Z,9.95
2022-10-02T01:05:03.075Z,9.89
2022-10-02T01:06:03.032Z,9.86
2022-10-02T01:07:03.034Z,9.95
2022-10-02T01:08:02.989Z,9.99
2022-10-02T01:09:02.976Z,9.91
2022-10-02T01:10:02.982Z,9.96
2022-10-02T01:11:03.200Z,9.85
2022-10-02T01:12:02.924Z,9.89
2022-10-02T01:13:03.584Z,9.96
2022-10-02T01:14:02.878Z,10.01
2022-10-02T01:15:02.919Z,9.91
2022-10-02T01:16:02.870Z,9.99
2022-10-02T01:17:02.827Z,9.89
2022-10-02T01:18:02.821Z,9.88
2022-10-02T01:19:02.815Z,10.02
2022-10-02T01:20:02.853Z,9.99
2022-10-02T01:21:02.765Z,9.95
2022-10-02T01:22:02.749Z,9.92
2022-10-02T01:23:02.739Z,9.89
2022-10-02T01:24:02.725Z,9.91
2022-10-02T01:25:02.739Z,9.93
2022-10-02T01:26:02.694Z,9.92
2022-10-02T01:27:02.659Z,9.86
2022-10-02T01:28:02.692Z,9.91
2022-10-02T01:29:02.623Z,9.93
2022-10-02T01:30:02.638Z,9.89
2022-10-02T01:31:02.595Z,10.06
2022-10-02T01:32:02.629Z,9.91
2022-10-02T01:33:02.607Z,9.95
2022-10-02T01:34:02.541Z,9.93
2022-10-02T01:35:02.617Z,9.92
2022-10-02T01:36:02.507Z,9.92
2022-10-02T01:37:02.485Z,9.85
2022-10-02T01:38:02.484Z,9.95
2022-10-02T01:39:02.465Z,9.89
2022-10-02T01:40:02.483Z,9.95
2022-10-02T01:41:02.430Z,9.95
2022-10-02T01:42:02.402Z,9.93
2022-10-02T01:43:02.464Z,9.99
2022-10-02T01:44:02.377Z,9.89
2022-10-02T01:45:02.404Z,9.95
2022-10-02T01:46:02.448Z,9.96
2022-10-02T01:47:02.321Z,9.99
2022-10-02T01:48:02.302Z,9.85
2022-10-02T01:49:02.340Z,9.96
2022-10-02T01:50:02.298Z,9.93
2022-10-02T01:51:02.249Z,9.89
2022-10-02T01:52:02.226Z,9.80
2022-10-02T01:53:02.229Z,9.88
2022-10-02T01:54:02.213Z,9.89
2022-10-02T01:55:02.231Z,9.85
2022-10-02T01:56:02.176Z,9.89
2022-10-02T01:57:02.200Z,9.98
2022-10-02T01:58:02.137Z,9.92
2022-10-02T01:59:02.131Z,9.99
2022-10-02T02:00:02.145Z,9.91
2022-10-02T02:01:02.101Z,9.95
2022-10-02T02:02:03.113Z,9.86
2022-10-02T02:03:02.115Z,9.88
2022-10-02T02:04:02.039Z,10.01
2022-10-02T02:05:02.045Z,9.99
2022-10-02T02:06:02.000Z,10.01
2022-10-02T02:07:02.001Z,10.01
2022-10-02T02:08:01.975Z,9.96
2022-10-02T02:09:02.255Z,9.98
2022-10-02T02:10:02.962Z,9.89
2022-10-02T02:11:01.921Z,9.99
2022-10-02T02:12:01.894Z,9.92
2022-10-02T02:13:01.928Z,10.10
2022-10-02T02:14:01.858Z,9.86
2022-10-02T02:15:01.891Z,9.96
2022-10-02T02:16:01.877Z,10.01
2022-10-02T02:17:01.814Z,9.92
2022-10-02T02:18:01.803Z,9.93
2022-10-02T02:19:01.782Z,10.01
2022-10-02T02:20:01.796Z,9.92
2022-10-02T02:21:01.749Z,10.02
2022-10-02T02:22:01.730Z,9.99
2022-10-02T02:23:01.714Z,9.92
2022-10-02T02:24:01.755Z,9.85
2022-10-02T02:25:01.688Z,9.92
2022-10-02T02:26:01.715Z,9.96
2022-10-02T02:27:01.651Z,9.93
2022-10-02T02:28:01.703Z,9.88
2022-10-02T02:29:01.633Z,9.95
2022-10-02T02:30:01.634Z,10.01
2022-10-02T02:31:01.595Z,10.07
2022-10-02T02:32:01.666Z,9.93
2022-10-02T02:33:01.587Z,9.95
2022-10-02T02:34:01.541Z,9.92
2022-10-02T02:35:01.552Z,9.91
2022-10-02T02:36:01.494Z,10.02
2022-10-02T02:37:01.482Z,9.91
2022-10-02T02:38:01.449Z,10.01
2022-10-02T02:39:01.446Z,10.02
2022-10-02T02:40:01.457Z,9.92
2022-10-02T02:41:01.424Z,10.07
2022-10-02T02:42:01.394Z,10.01
2022-10-02T02:43:01.409Z,9.99
2022-10-02T02:44:01.386Z,9.95
2022-10-02T02:45:01.379Z,9.98
2022-10-02T02:46:33.965Z,9.99
2022-10-02T02:47:01.331Z,9.96
2022-10-02T02:48:01.308Z,9.88
2022-10-02T02:49:01.284Z,10.06
2022-10-02T02:50:01.298Z,9.93
2022-10-02T02:51:01.240Z,9.95
2022-10-02T02:52:01.267Z,9.91
2022-10-02T02:53:01.250Z,9.93
2022-10-02T02:54:01.208Z,9.85
2022-10-02T02:55:01.239Z,9.80
2022-10-02T02:56:01.165Z,9.91
2022-10-02T02:57:01.159Z,9.96
2022-10-02T02:58:01.158Z,9.93
2022-10-02T02:59:01.122Z,9.89
2022-10-02T03:00:01.156Z,9.91
2022-10-02T03:01:01.127Z,9.92
2022-10-02T03:02:01.104Z,9.89
2022-10-02T03:03:01.127Z,9.98
2022-10-02T03:04:01.023Z,9.95
2022-10-02T03:05:01.052Z,9.95
2022-10-02T03:06:01.007Z,9.85
2022-10-02T03:07:00.986Z,9.86
2022-10-02T03:08:00.967Z,9.91
2022-10-02T03:09:00.952Z,9.89
2022-10-02T03:10:00.988Z,10.02
2022-10-02T03:11:00.908Z,9.83
2022-10-02T03:12:00.907Z,9.91
2022-10-02T03:13:00.889Z,9.91
2022-10-02T03:14:00.908Z,9.95
2022-10-02T03:15:00.887Z,9.88
2022-10-02T03:16:00.874Z,9.92
2022-10-02T03:17:00.813Z,9.88
2022-10-02T03:18:00.793Z,9.81
2022-10-02T03:19:00.791Z,9.91
2022-10-02T03:20:00.759Z,9.86
2022-10-02T03:21:00.777Z,9.91
2022-10-02T03:22:00.738Z,9.88
2022-10-02T03:23:00.730Z,9.83
2022-10-02T03:24:01.693Z,9.83
2022-10-02T03:25:00.883Z,9.88
2022-10-02T03:26:00.706Z,9.83
2022-10-02T03:27:00.654Z,9.83
2022-10-02T03:28:00.660Z,9.88
2022-10-02T03:29:00.681Z,9.81
2022-10-02T03:30:00.586Z,9.80
2022-10-02T03:31:00.604Z,9.78
2022-10-02T03:32:00.587Z,9.95
2022-10-02T03:33:00.660Z,9.92
2022-10-02T03:34:00.541Z,9.95
2022-10-02T03:35:00.545Z,9.83
2022-10-02T03:36:00.505Z,9.86
2022-10-02T03:37:00.473Z,9.86
2022-10-02T03:38:00.471Z,9.78
2022-10-02T03:39:23.790Z,9.88
2022-10-02T03:40:02.471Z,9.86
2022-10-02T03:41:00.414Z,9.88
2022-10-02T03:42:00.416Z,9.88
2022-10-02T03:43:00.446Z,9.91
2022-10-02T03:44:00.371Z,9.86
2022-10-02T03:45:00.337Z,9.81
2022-10-02T03:46:00.397Z,9.91
2022-10-02T03:47:00.322Z,9.93
2022-10-02T03:48:00.294Z,9.92
2022-10-02T03:49:00.279Z,9.93
2022-10-02T03:50:00.265Z,10.02
2022-10-02T03:51:00.264Z,9.99
2022-10-02T03:52:00.207Z,10.07
2022-10-02T03:53:00.229Z,10.06
2022-10-02T03:54:00.184Z,10.13
2022-10-02T03:55:00.180Z,10.02
2022-10-02T03:56:00.189Z,10.04
2022-10-02T03:57:00.134Z,10.09
2022-10-02T03:58:00.135Z,10.14
2022-10-02T03:59:00.111Z,10.13
2022-10-02T04:00:00.113Z,10.22
2022-10-02T04:01:00.095Z,10.13
2022-10-02T04:02:00.152Z,10.16
2022-10-02T04:03:00.061Z,10.16
2022-10-02T04:04:00.047Z,10.28
2022-10-02T04:04:59.993Z,10.29
2022-10-02T04:06:00.007Z,10.26
2022-10-02T04:06:59.976Z,10.32
2022-10-02T04:07:59.977Z,10.29
2022-10-02T04:08:59.954Z,10.32
2022-10-02T04:09:59.917Z,10.36
2022-10-02T04:10:59.942Z,10.26
2022-10-02T04:11:59.877Z,10.38
2022-10-02T04:12:59.944Z,10.51
2022-10-02T04:13:59.847Z,10.43
2022-10-02T04:14:59.819Z,10.42
2022-10-02T04:15:59.927Z,10.49
2022-10-02T04:16:59.814Z,10.52
2022-10-02T04:17:59.775Z,10.43
2022-10-02T04:18:59.777Z,10.39
2022-10-02T04:19:59.803Z,10.51
2022-10-02T04:20:59.761Z,10.46
2022-10-02T04:21:59.704Z,10.54
2022-10-02T04:23:00.737Z,10.43
2022-10-02T04:23:59.701Z,10.47
2022-10-02T04:24:59.652Z,10.51
2022-10-02T04:25:59.683Z,10.54
2022-10-02T04:26:59.667Z,10.58
2022-10-02T04:27:59.693Z,10.62
2022-10-02T04:28:59.601Z,10.65
2022-10-02T04:29:59.580Z,10.65
2022-10-02T04:30:59.666Z,10.66
2022-10-02T04:31:59.574Z,10.63
2022-10-02T04:32:59.559Z,10.70
2022-10-02T04:33:59.511Z,10.70
2022-10-02T04:34:59.485Z,10.73
2022-10-02T04:35:59.492Z,10.73
2022-10-02T04:36:59.477Z,10.86
2022-10-02T04:37:59.440Z,10.73
2022-10-02T04:38:59.419Z,10.83
2022-10-02T04:39:59.403Z,10.80
2022-10-02T04:40:59.417Z,10.76
2022-10-02T04:41:59.432Z,10.83
2022-10-02T04:42:59.360Z,10.83
2022-10-02T04:43:59.338Z,10.70
2022-10-02T04:44:59.330Z,10.81
2022-10-02T04:45:59.397Z,10.83
2022-10-02T04:46:59.271Z,10.83
2022-10-02T04:47:59.255Z,10.91
2022-10-02T04:48:59.256Z,10.86
2022-10-02T04:49:59.220Z,10.76
2022-10-02T04:50:59.269Z,10.95
2022-10-02T04:51:59.187Z,10.90
2022-10-02T04:52:59.199Z,10.99
2022-10-02T04:53:59.148Z,10.90
2022-10-02T04:55:00.152Z,10.90
2022-10-02T04:55:59.161Z,10.87
2022-10-02T04:56:59.120Z,10.94
2022-10-02T04:57:59.089Z,10.80
2022-10-02T04:58:59.076Z,10.84
2022-10-02T04:59:59.069Z,10.78
2022-10-02T05:00:59.124Z,10.81
2022-10-02T05:01:59.096Z,10.78
2022-10-02T05:02:59.085Z,10.83
2022-10-02T05:04:03.248Z,10.80
2022-10-02T05:05:00.962Z,10.84
2022-10-02T05:05:58.986Z,10.94
2022-10-02T05:06:58.938Z,10.84
2022-10-02T05:07:58.933Z,10.75
2022-10-02T05:08:58.915Z,10.81
2022-10-02T05:09:58.905Z,10.76
2022-10-02T05:10:58.899Z,10.83
2022-10-02T05:11:58.869Z,10.87
2022-10-02T05:12:58.864Z,10.94
2022-10-02T05:13:58.826Z,10.91
2022-10-02T05:14:58.830Z,11.01
2022-10-02T05:15:58.920Z,10.90
2022-10-02T05:16:58.787Z,10.87
2022-10-02T05:17:58.769Z,10.87
2022-10-02T05:18:58.751Z,10.93
2022-10-02T05:19:58.731Z,10.88
2022-10-02T05:20:58.745Z,10.88
2022-10-02T05:21:58.691Z,10.88
2022-10-02T05:22:58.742Z,10.91
2022-10-02T05:23:58.665Z,10.84
2022-10-02T05:24:58.643Z,10.93
2022-10-02T05:25:58.759Z,10.94
2022-10-02T05:26:58.607Z,10.93
2022-10-02T05:27:58.729Z,10.88
2022-10-02T05:28:58.574Z,10.94
2022-10-02T05:29:58.566Z,10.98
2022-10-02T05:30:58.604Z,10.95
2022-10-02T05:31:58.531Z,10.91
2022-10-02T05:32:58.508Z,10.98
2022-10-02T05:33:58.501Z,10.94
2022-10-02T05:34:58.472Z,10.98
2022-10-02T05:35:58.513Z,11.05
2022-10-02T05:36:58.592Z,11.02
2022-10-02T05:37:58.458Z,10.94
2022-10-02T05:38:58.417Z,10.99
2022-10-02T05:39:58.391Z,11.02
2022-10-02T05:40:58.408Z,11.08
2022-10-02T05:41:58.375Z,11.08
2022-10-02T05:42:59.069Z,11.05
2022-10-02T05:43:58.330Z,11.06
2022-10-02T05:44:58.314Z,11.16
2022-10-02T05:45:58.331Z,11.02
2022-10-02T05:46:58.350Z,11.06
2022-10-02T05:47:58.346Z,11.08
2022-10-02T05:48:58.267Z,11.27
2022-10-02T05:49:58.268Z,11.12
2022-10-02T05:50:58.249Z,11.23
2022-10-02T05:51:58.214Z,11.30
2022-10-02T05:52:58.313Z,11.27
2022-10-02T05:53:58.172Z,11.44
2022-10-02T05:54:58.147Z,11.36
2022-10-02T05:55:58.152Z,11.36
2022-10-02T05:56:58.103Z,11.54
2022-10-02T05:57:58.092Z,11.56
2022-10-02T05:58:58.120Z,11.51
2022-10-02T05:59:58.064Z,11.62
2022-10-02T06:00:58.179Z,11.66
2022-10-02T06:01:58.140Z,11.66
2022-10-02T06:02:58.092Z,11.63
2022-10-02T06:03:57.988Z,11.64
2022-10-02T06:04:58.966Z,11.69
2022-10-02T06:05:58.002Z,11.72
2022-10-02T06:06:57.946Z,11.69
2022-10-02T06:07:57.926Z,11.69
2022-10-02T06:08:57.909Z,11.60
2022-10-02T06:09:57.888Z,11.78
2022-10-02T06:10:57.898Z,11.79
2022-10-02T06:11:57.849Z,11.72
2022-10-02T06:12:57.851Z,11.72
2022-10-02T06:13:57.826Z,11.63
2022-10-02T06:14:57.812Z,11.77
2022-10-02T06:15:57.921Z,11.72
2022-10-02T06:16:57.772Z,11.75
2022-10-02T06:17:58.751Z,11.87
2022-10-02T06:18:57.735Z,11.81
2022-10-02T06:20:02.357Z,11.77
2022-10-02T06:20:59.741Z,11.72
2022-10-02T06:21:57.680Z,11.85
2022-10-02T06:22:57.679Z,11.79
2022-10-02T06:23:57.663Z,11.90
2022-10-02T06:24:57.635Z,11.82
2022-10-02T06:25:57.643Z,11.87
2022-10-02T06:26:57.594Z,11.96
2022-10-02T06:27:57.637Z,11.90
2022-10-02T06:28:57.572Z,11.88
2022-10-02T06:29:57.552Z,11.88
2022-10-02T06:30:57.554Z,11.85
2022-10-02T06:31:57.621Z,11.96
2022-10-02T06:32:57.525Z,12.01
2022-10-02T06:33:57.474Z,11.97
2022-10-02T06:34:57.478Z,11.98
2022-10-02T06:35:57.487Z,12.01
2022-10-02T06:36:57.421Z,12.03
2022-10-02T06:37:57.412Z,12.05
2022-10-02T06:38:57.412Z,12.01
2022-10-02T06:39:57.386Z,12.07
2022-10-02T06:40:57.397Z,12.01
2022-10-02T06:41:57.344Z,12.08
2022-10-02T06:42:57.332Z,12.19
2022-10-02T06:43:57.304Z,12.05
2022-10-02T06:44:57.308Z,12.23
2022-10-02T06:45:57.364Z,12.29
2022-10-02T06:46:57.255Z,12.30
2022-10-02T06:47:57.229Z,12.25
2022-10-02T06:48:57.220Z,12.36
2022-10-02T06:49:57.200Z,12.26
2022-10-02T06:50:58.215Z,12.40
2022-10-02T06:51:57.180Z,12.41
2022-10-02T06:52:57.158Z,12.36
2022-10-02T06:53:57.178Z,12.41
2022-10-02T06:54:57.123Z,12.52
2022-10-02T06:55:57.137Z,12.58
2022-10-02T06:56:57.077Z,12.67
2022-10-02T06:57:57.071Z,12.74
2022-10-02T06:58:57.049Z,12.88
2022-10-02T06:59:57.035Z,12.88
2022-10-02T07:00:57.131Z,12.92
2022-10-02T07:01:57.488Z,12.74
2022-10-02T07:02:58.057Z,12.81
2022-10-02T07:03:56.965Z,12.71
2022-10-02T07:04:56.993Z,12.55
2022-10-02T07:05:56.949Z,12.52
2022-10-02T07:06:56.899Z,12.58
2022-10-02T07:07:56.894Z,12.49
2022-10-02T07:08:56.874Z,12.48
2022-10-02T07:09:56.880Z,12.48
2022-10-02T07:10:56.868Z,12.52
2022-10-02T07:11:56.850Z,12.55
2022-10-02T07:12:56.802Z,12.48
2022-10-02T07:13:56.794Z,12.51
2022-10-02T07:14:56.795Z,12.55
2022-10-02T07:15:56.860Z,12.62
2022-10-02T07:16:56.725Z,12.52
2022-10-02T07:17:56.704Z,12.51
2022-10-02T07:18:56.720Z,12.63
2022-10-02T07:19:56.692Z,12.61
2022-10-02T07:20:56.681Z,12.67
2022-10-02T07:21:56.688Z,12.84
2022-10-02T07:22:58.083Z,12.81
2022-10-02T07:24:01.407Z,12.98
2022-10-02T07:24:58.610Z,12.92
2022-10-02T07:25:56.617Z,13.03
2022-10-02T07:26:56.633Z,13.14
2022-10-02T07:27:56.684Z,13.29
2022-10-02T07:28:56.524Z,13.32
2022-10-02T07:29:56.550Z,13.28
2022-10-02T07:30:56.487Z,13.47
2022-10-02T07:31:56.576Z,13.29
2022-10-02T07:32:56.560Z,13.46
2022-10-02T07:33:56.434Z,13.43
2022-10-02T07:34:56.436Z,13.36
2022-10-02T07:35:56.426Z,13.61
2022-10-02T07:36:56.419Z,13.55
2022-10-02T07:37:57.425Z,13.63
2022-10-02T07:38:56.355Z,13.71
2022-10-02T07:39:56.348Z,13.72
2022-10-02T07:40:59.919Z,13.75
2022-10-02T07:41:57.346Z,13.98
2022-10-02T07:42:56.331Z,14.17
2022-10-02T07:43:56.281Z,14.59
2022-10-02T07:44:56.271Z,14.94
2022-10-02T07:45:56.307Z,15.15
2022-10-02T07:46:56.259Z,15.88
2022-10-02T07:47:56.201Z,16.78
2022-10-02T07:48:56.203Z,16.84
2022-10-02T07:49:56.174Z,16.88
2022-10-02T07:50:56.162Z,16.59
2022-10-02T07:51:56.174Z,16.37
2022-10-02T07:52:56.149Z,15.91
2022-10-02T07:53:56.107Z,15.76
2022-10-02T07:54:56.097Z,15.43
2022-10-02T07:55:56.063Z,15.13
2022-10-02T07:56:56.070Z,15.12
2022-10-02T07:57:56.034Z,15.22
2022-10-02T07:58:56.027Z,15.27
2022-10-02T07:59:55.995Z,15.40
2022-10-02T08:00:55.983Z,15.31
2022-10-02T08:01:56.085Z,15.40
2022-10-02T08:02:56.103Z,15.41
2022-10-02T08:03:55.942Z,15.48
2022-10-02T08:04:55.916Z,15.51
2022-10-02T08:05:56.902Z,15.52
2022-10-02T08:06:55.934Z,15.67
2022-10-02T08:07:55.871Z,15.76
2022-10-02T08:08:55.851Z,15.86
2022-10-02T08:09:55.843Z,15.91
2022-10-02T08:10:55.911Z,15.93
2022-10-02T08:11:55.844Z,15.88
2022-10-02T08:12:55.827Z,16.10
2022-10-02T08:13:55.765Z,16.48
2022-10-02T08:14:55.758Z,16.33
2022-10-02T08:15:55.822Z,16.08
2022-10-02T08:16:55.794Z,15.86
2022-10-02T08:17:58.714Z,15.91
2022-10-02T08:18:56.699Z,15.78
2022-10-02T08:19:55.674Z,15.78
2022-10-02T08:20:55.662Z,15.80
2022-10-02T08:21:55.729Z,15.76
2022-10-02T08:22:56.617Z,15.53
2022-10-02T08:23:55.603Z,15.67
2022-10-02T08:24:55.587Z,15.67
2022-10-02T08:25:55.596Z,15.53
2022-10-02T08:26:55.566Z,15.46
2022-10-02T08:27:55.546Z,15.58
2022-10-02T08:28:55.505Z,15.48
2022-10-02T08:29:55.510Z,15.40
2022-10-02T08:30:55.468Z,15.23
2022-10-02T08:31:55.528Z,15.16
2022-10-02T08:32:55.431Z,15.23
2022-10-02T08:33:55.428Z,15.18
2022-10-02T08:34:55.409Z,15.48
2022-10-02T08:35:55.391Z,15.52
2022-10-02T08:36:55.421Z,15.84
2022-10-02T08:37:55.361Z,16.07
2022-10-02T08:38:55.344Z,16.11
2022-10-02T08:39:55.320Z,16.18
2022-10-02T08:40:55.280Z,16.48
2022-10-02T08:41:55.308Z,16.51
2022-10-02T08:42:55.312Z,16.44
2022-10-02T08:43:55.272Z,16.32
2022-10-02T08:44:55.234Z,16.27
2022-10-02T08:45:55.418Z,16.45
2022-10-02T08:46:55.233Z,16.55
2022-10-02T08:47:55.181Z,17.06
2022-10-02T08:48:55.171Z,17.38
2022-10-02T08:49:55.163Z,17.79
2022-10-02T08:50:55.140Z,18.25
2022-10-02T08:51:55.158Z,18.17
2022-10-02T08:52:55.119Z,18.11
2022-10-02T08:53:55.092Z,17.89
2022-10-02T08:54:55.164Z,17.76
2022-10-02T08:55:55.044Z,17.54
2022-10-02T08:56:55.070Z,17.46
2022-10-02T08:57:54.999Z,17.43
2022-10-02T08:58:54.995Z,17.39
2022-10-02T08:59:54.991Z,17.25
2022-10-02T09:00:54.987Z,17.49
2022-10-02T09:01:59.542Z,17.84
2022-10-02T09:02:56.958Z,17.80
2022-10-02T09:03:54.898Z,17.80
2022-10-02T09:04:54.882Z,17.73
2022-10-02T09:05:54.867Z,17.80
2022-10-02T09:06:54.908Z,17.74
2022-10-02T09:07:54.830Z,17.79
2022-10-02T09:08:54.801Z,17.84
2022-10-02T09:09:54.793Z,17.66
2022-10-02T09:10:54.776Z,17.71
2022-10-02T09:11:54.781Z,17.57
2022-10-02T09:12:54.828Z,17.49
2022-10-02T09:13:54.730Z,17.39
2022-10-02T09:14:58.755Z,17.03
2022-10-02T09:15:55.708Z,16.91
2022-10-02T09:16:54.776Z,17.06
2022-10-02T09:17:54.666Z,17.02
2022-10-02T09:18:54.660Z,16.85
2022-10-02T09:19:54.646Z,16.66
2022-10-02T09:20:54.605Z,16.60
2022-10-02T09:21:54.612Z,16.45
2022-10-02T09:22:55.573Z,16.32
2022-10-02T09:23:54.568Z,15.86
2022-10-02T09:24:54.559Z,15.91
2022-10-02T09:25:54.521Z,15.95
2022-10-02T09:26:54.540Z,15.91
2022-10-02T09:27:54.534Z,15.98
2022-10-02T09:28:54.479Z,16.13
2022-10-02T09:29:54.446Z,16.13
2022-10-02T09:30:54.449Z,16.13
2022-10-02T09:31:54.503Z,16.07
2022-10-02T09:32:54.427Z,16.08
2022-10-02T09:33:54.381Z,16.13
2022-10-02T09:34:54.372Z,16.06
2022-10-02T09:35:54.380Z,16.01
2022-10-02T09:36:54.380Z,15.99
2022-10-02T09:37:54.350Z,15.93
2022-10-02T09:38:54.366Z,15.91
2022-10-02T09:39:54.276Z,15.80
2022-10-02T09:40:54.263Z,15.68
2022-10-02T09:41:54.276Z,15.70
2022-10-02T09:42:54.288Z,15.71
2022-10-02T09:43:54.199Z,15.66
2022-10-02T09:44:56.410Z,15.78
2022-10-02T09:45:55.188Z,15.67
2022-10-02T09:46:54.202Z,15.60
2022-10-02T09:47:54.130Z,15.66
2022-10-02T09:48:54.128Z,15.78
2022-10-02T09:49:54.174Z,15.68
2022-10-02T09:50:54.086Z,15.80
2022-10-02T09:51:54.104Z,15.77
2022-10-02T09:52:54.238Z,15.78
2022-10-02T09:53:54.040Z,15.88
2022-10-02T09:54:54.027Z,15.96
2022-10-02T09:55:54.017Z,15.96
2022-10-02T09:56:54.018Z,15.88
2022-10-02T09:57:53.969Z,15.98
2022-10-02T09:58:53.951Z,16.33
2022-10-02T09:59:53.940Z,16.45
2022-10-02T10:00:54.029Z,16.51
2022-10-02T10:01:54.017Z,16.65
2022-10-02T10:02:54.004Z,16.69
2022-10-02T10:03:53.860Z,16.65
2022-10-02T10:05:05.503Z,16.75
2022-10-02T10:05:55.865Z,16.84
2022-10-02T10:06:53.881Z,16.77
2022-10-02T10:07:53.836Z,16.78
2022-10-02T10:08:53.798Z,16.75
2022-10-02T10:09:53.795Z,16.81
2022-10-02T10:10:53.752Z,16.87
2022-10-02T10:11:53.776Z,16.73
2022-10-02T10:12:53.835Z,16.78
2022-10-02T10:13:53.691Z,16.81
2022-10-02T10:14:53.685Z,16.59
2022-10-02T10:15:53.736Z,16.52
2022-10-02T10:16:53.667Z,16.47
2022-10-02T10:17:53.674Z,16.51
2022-10-02T10:18:53.604Z,16.29
2022-10-02T10:19:54.588Z,16.25
2022-10-02T10:20:53.609Z,16.27
2022-10-02T10:21:53.583Z,16.33
2022-10-02T10:22:53.727Z,16.32
2022-10-02T10:23:53.533Z,16.34
2022-10-02T10:24:53.512Z,16.54
2022-10-02T10:25:53.494Z,16.63
2022-10-02T10:26:53.473Z,16.82
2022-10-02T10:27:53.528Z,16.92
2022-10-02T10:28:53.435Z,17.07
2022-10-02T10:29:53.426Z,17.15
2022-10-02T10:30:53.405Z,17.21
2022-10-02T10:31:53.432Z,17.33
2022-10-02T10:32:54.537Z,17.25
2022-10-02T10:33:53.412Z,17.42
2022-10-02T10:34:53.331Z,17.62
2022-10-02T10:35:53.325Z,17.80
2022-10-02T10:36:53.326Z,18.14
2022-10-02T10:37:53.325Z,18.34
2022-10-02T10:38:53.285Z,18.53
2022-10-02T10:39:53.274Z,18.86
2022-10-02T10:40:53.257Z,19.05
2022-10-02T10:41:53.236Z,19.25
2022-10-02T10:43:07.456Z,19.38
2022-10-02T10:43:55.206Z,19.38
2022-10-02T10:44:53.219Z,19.23
2022-10-02T10:45:53.203Z,19.09
2022-10-02T10:46:53.143Z,18.93
2022-10-02T10:47:53.148Z,18.86
2022-10-02T10:48:53.112Z,18.83
2022-10-02T10:49:53.065Z,18.53
2022-10-02T10:50:53.157Z,18.38
2022-10-02T10:51:53.067Z,18.19
2022-10-02T10:52:53.228Z,18.05
2022-10-02T10:53:53.021Z,17.95
2022-10-02T10:54:52.990Z,17.83
2022-10-02T10:55:53.013Z,17.70
2022-10-02T10:56:52.980Z,17.55
2022-10-02T10:57:52.972Z,17.55
2022-10-02T10:58:52.920Z,17.54
2022-10-02T10:59:52.911Z,17.43
2022-10-02T11:00:52.966Z,17.30
2022-10-02T11:01:52.921Z,17.14
2022-10-02T11:02:52.892Z,17.20
2022-10-02T11:03:52.854Z,17.21
2022-10-02T11:04:52.846Z,17.07
2022-10-02T11:05:52.799Z,17.10
2022-10-02T11:06:52.915Z,17.12
2022-10-02T11:07:52.820Z,17.07
2022-10-02T11:08:52.746Z,17.09
2022-10-02T11:09:52.738Z,17.30
2022-10-02T11:10:52.730Z,17.12
2022-10-02T11:11:52.749Z,17.17
2022-10-02T11:12:52.752Z,17.06
2022-10-02T11:13:52.658Z,17.14
2022-10-02T11:14:52.701Z,17.20
2022-10-02T11:15:52.630Z,17.24
2022-10-02T11:16:52.679Z,17.43
2022-10-02T11:17:52.666Z,17.54
2022-10-02T11:18:52.595Z,17.58
2022-10-02T11:19:52.566Z,17.70
2022-10-02T11:20:52.551Z,17.60
2022-10-02T11:21:52.527Z,17.62
2022-10-02T11:22:52.557Z,17.54
2022-10-02T11:23:52.509Z,17.54
2022-10-02T11:24:52.483Z,17.49
2022-10-02T11:25:52.471Z,17.58
2022-10-02T11:26:52.453Z,17.60
2022-10-02T11:27:52.472Z,17.71
2022-10-02T11:28:52.452Z,17.83
2022-10-02T11:29:52.370Z,17.77
2022-10-02T11:30:52.410Z,17.70
2022-10-02T11:31:52.456Z,17.62
2022-10-02T11:32:53.011Z,17.60
2022-10-02T11:33:52.325Z,17.63
2022-10-02T11:34:52.298Z,17.79
2022-10-02T11:35:52.318Z,17.73
2022-10-02T11:36:52.261Z,17.87
2022-10-02T11:37:52.275Z,17.94
2022-10-02T11:38:52.228Z,18.07
2022-10-02T11:39:52.268Z,18.09
2022-10-02T11:40:52.189Z,18.11
2022-10-02T11:41:52.175Z,18.26
2022-10-02T11:42:52.207Z,18.26
2022-10-02T11:43:52.141Z,18.41
2022-10-02T11:44:52.116Z,18.35
2022-10-02T11:45:52.178Z,18.53
2022-10-02T11:46:52.100Z,18.57
2022-10-02T11:47:52.112Z,18.74
2022-10-02T11:48:52.067Z,18.66
2022-10-02T11:49:52.031Z,18.72
2022-10-02T11:50:52.150Z,18.71
2022-10-02T11:51:52.046Z,18.75
2022-10-02T11:52:52.049Z,18.79
2022-10-02T11:53:52.000Z,18.75
2022-10-02T11:54:51.957Z,18.72
2022-10-02T11:55:51.968Z,18.76
2022-10-02T11:56:51.905Z,18.79
2022-10-02T11:57:51.939Z,18.64
2022-10-02T11:58:51.888Z,18.72
2022-10-02T11:59:51.928Z,18.72
2022-10-02T12:00:51.824Z,18.59
2022-10-02T12:01:51.928Z,18.49
2022-10-02T12:02:52.028Z,18.34
2022-10-02T12:03:51.782Z,18.31
2022-10-02T12:04:51.772Z,18.19
2022-10-02T12:05:51.735Z,17.99
2022-10-02T12:06:51.734Z,18.02
2022-10-02T12:07:51.741Z,18.05
2022-10-02T12:08:51.694Z,17.99
2022-10-02T12:09:51.667Z,18.02
2022-10-02T12:10:51.653Z,17.87
2022-10-02T12:11:51.620Z,17.80
2022-10-02T12:12:51.736Z,17.83
2022-10-02T12:13:51.594Z,17.79
2022-10-02T12:14:51.597Z,17.76
2022-10-02T12:15:51.577Z,17.62
2022-10-02T12:16:51.605Z,17.65
2022-10-02T12:17:51.570Z,17.57
2022-10-02T12:18:51.526Z,17.51
2022-10-02T12:19:51.486Z,17.42
2022-10-02T12:20:51.470Z,17.38
2022-10-02T12:21:51.457Z,17.24
2022-10-02T12:22:51.558Z,17.20
2022-10-02T12:23:51.452Z,17.22
2022-10-02T12:24:54.735Z,17.06
2022-10-02T12:25:52.399Z,16.98
2022-10-02T12:26:51.373Z,16.92
2022-10-02T12:27:51.436Z,16.92
2022-10-02T12:28:51.335Z,16.87
2022-10-02T12:29:51.328Z,16.80
2022-10-02T12:30:51.297Z,16.73
2022-10-02T12:31:51.505Z,16.67
2022-10-02T12:32:51.469Z,16.65
2022-10-02T12:33:56.303Z,16.72
2022-10-02T12:34:53.286Z,16.66
2022-10-02T12:35:51.214Z,16.65
2022-10-02T12:36:52.205Z,16.60
2022-10-02T12:37:51.230Z,16.67
2022-10-02T12:38:51.186Z,16.82
2022-10-02T12:39:51.184Z,16.77
2022-10-02T12:40:51.151Z,16.70
2022-10-02T12:41:51.112Z,16.70
2022-10-02T12:42:51.190Z,16.72
2022-10-02T12:43:51.094Z,16.67
2022-10-02T12:44:51.068Z,16.72
2022-10-02T12:45:51.245Z,16.80
2022-10-02T12:46:51.039Z,16.75
2022-10-02T12:47:51.104Z,16.81
2022-10-02T12:48:51.002Z,16.91
2022-10-02T12:49:50.955Z,16.96
2022-10-02T12:50:50.937Z,17.00
2022-10-02T12:51:50.934Z,16.98
2022-10-02T12:52:51.231Z,17.15
2022-10-02T12:53:50.897Z,17.12
2022-10-02T12:54:50.888Z,17.12
2022-10-02T12:55:50.870Z,17.14
2022-10-02T12:56:50.873Z,17.38